Time;durP1;ratioP1;P1;durP2;ratioP2;P2;SDS_P1;SDS_P2;PMS_P1;PMS_P2;Temp;Humidity;BMP_temperature;BMP_pressure;BME280_temperature;BME280_humidity;BME280_pressure;Samples;Min_cycle;Max_cycle;Signal;HPM_P1;HPM_P2
2022/06/16 00:01:53;;;;;;;7.97;5.20;;;20.70;65.20;;;;;;5088721;28;20487;-74
2022/06/16 00:04:22;;;;;;;7.93;4.53;;;20.60;65.30;;;;;;5085393;28;20451;-74
2022/06/16 00:06:51;;;;;;;8.47;4.73;;;20.60;65.40;;;;;;5088798;28;20461;-73
2022/06/16 00:09:19;;;;;;;7.27;5.10;;;20.60;65.40;;;;;;5089894;28;20488;-74
2022/06/16 00:11:48;;;;;;;7.90;4.97;;;20.60;65.40;;;;;;5072003;28;20484;-74
2022/06/16 00:14:16;;;;;;;7.70;5.07;;;20.60;65.50;;;;;;5090430;28;20467;-74
2022/06/16 00:16:45;;;;;;;7.10;4.53;;;20.50;65.50;;;;;;5090177;28;20480;-75
2022/06/16 00:19:13;;;;;;;10.70;5.03;;;20.50;65.60;;;;;;5086379;28;20471;-75
2022/06/16 00:21:41;;;;;;;6.83;4.47;;;20.50;65.50;;;;;;5089146;28;20483;-74
2022/06/16 00:24:09;;;;;;;7.37;5.33;;;20.50;65.60;;;;;;5088897;28;20478;-74
2022/06/16 00:26:37;;;;;;;8.10;4.73;;;20.40;65.60;;;;;;5088269;28;20465;-74
2022/06/16 00:29:07;;;;;;;10.93;5.40;;;20.40;65.60;;;;;;5092865;28;20465;-73
2022/06/16 00:31:38;;;;;;;7.50;5.10;;;20.40;65.70;;;;;;5088798;28;20908;-74
2022/06/16 00:34:06;;;;;;;7.80;4.97;;;20.40;65.70;;;;;;5090064;28;20455;-74
2022/06/16 00:36:35;;;;;;;6.73;4.93;;;20.40;65.70;;;;;;5089985;28;20453;-74
2022/06/16 00:39:03;;;;;;;8.90;5.70;;;20.40;65.70;;;;;;5071801;28;20575;-74
2022/06/16 00:41:31;;;;;;;7.70;5.80;;;20.40;65.80;;;;;;5070551;28;20487;-74
2022/06/16 00:44:00;;;;;;;9.73;6.10;;;20.40;65.80;;;;;;5084034;28;20953;-74
2022/06/16 00:46:30;;;;;;;7.57;6.13;;;20.40;65.80;;;;;;5088706;28;20509;-73
2022/06/16 00:49:01;;;;;;;10.17;5.83;;;20.40;65.90;;;;;;5088364;28;20553;-73
2022/06/16 00:51:33;;;;;;;9.90;5.30;;;20.30;66.00;;;;;;5086769;28;21205;-74
2022/06/16 00:54:08;;;;;;;8.37;6.00;;;20.30;66.00;;;;;;5082911;28;20497;-74
2022/06/16 00:56:37;;;;;;;8.50;6.23;;;20.30;66.00;;;;;;5086981;28;20455;-74
2022/06/16 00:59:07;;;;;;;7.93;5.60;;;20.20;65.90;;;;;;5089521;28;20445;-75
2022/06/16 01:01:41;;;;;;;9.17;5.57;;;20.20;66.10;;;;;;5087837;28;20465;-75
2022/06/16 01:06:58;;;;;;;9.43;5.67;;;20.00;66.20;;;;;;5071863;28;20477;-74
2022/06/16 01:09:30;;;;;;;7.83;5.67;;;20.00;66.20;;;;;;5070655;28;20982;-73
2022/06/16 01:15:17;;;;;;;7.10;5.00;;;19.90;66.40;;;;;;5086472;28;20455;-74
2022/06/16 01:17:57;;;;;;;7.73;5.07;;;19.80;66.40;;;;;;5070714;28;20450;-75
2022/06/16 01:20:45;;;;;;;8.00;5.50;;;19.80;66.60;;;;;;5088441;28;20481;-75
2022/06/16 01:23:44;;;;;;;8.60;5.53;;;19.80;66.70;;;;;;5085521;28;20460;-74
2022/06/16 01:26:37;;;;;;;8.70;5.20;;;19.80;66.60;;;;;;5065545;28;20449;-75
2022/06/16 01:29:13;;;;;;;7.13;5.00;;;19.70;66.70;;;;;;5051739;28;20460;-73
2022/06/16 01:31:49;;;;;;;9.80;5.30;;;19.60;66.60;;;;;;5069049;28;20475;-75
2022/06/16 01:34:23;;;;;;;11.57;5.10;;;19.60;66.80;;;;;;5087974;28;20464;-73
2022/06/16 01:36:59;;;;;;;9.40;5.10;;;19.60;66.80;;;;;;5070205;28;20456;-74
2022/06/16 01:39:34;;;;;;;6.77;5.07;;;19.50;67.00;;;;;;5087527;28;20539;-74
2022/06/16 01:42:08;;;;;;;9.57;5.43;;;19.50;67.10;;;;;;5088048;28;20885;-75
2022/06/16 01:44:43;;;;;;;8.17;4.80;;;19.60;67.20;;;;;;5070110;28;20455;-76
2022/06/16 01:47:16;;;;;;;7.90;4.73;;;19.60;67.10;;;;;;5101837;28;20565;-73
2022/06/16 01:49:49;;;;;;;7.83;5.20;;;19.60;67.20;;;;;;5070035;28;20929;-75
2022/06/16 01:52:24;;;;;;;9.30;6.03;;;19.60;67.20;;;;;;5070047;28;20467;-74
2022/06/16 01:54:59;;;;;;;9.17;5.40;;;19.60;67.20;;;;;;5069926;28;20459;-75
2022/06/16 01:57:33;;;;;;;7.23;4.90;;;19.60;67.20;;;;;;5070126;28;20493;-77
2022/06/16 02:00:09;;;;;;;9.40;4.93;;;19.60;67.20;;;;;;5087461;28;20447;-74
2022/06/16 02:02:52;;;;;;;7.30;5.00;;;19.60;67.20;;;;;;5087564;28;20475;-75
2022/06/16 02:05:24;;;;;;;9.63;5.40;;;19.60;67.20;;;;;;5088062;28;20560;-74
2022/06/16 02:07:56;;;;;;;8.90;5.80;;;19.50;67.10;;;;;;5087672;28;20472;-73
2022/06/16 02:10:30;;;;;;;8.37;5.40;;;19.50;67.30;;;;;;5068511;28;20486;-73
2022/06/16 02:13:04;;;;;;;8.60;5.47;;;19.50;67.30;;;;;;5086935;28;21177;-75
2022/06/16 02:15:51;;;;;;;7.47;4.93;;;19.40;67.20;;;;;;5067874;28;20801;-76
2022/06/16 02:18:22;;;;;;;10.87;6.20;;;19.40;67.30;;;;;;5085961;28;20470;-76
2022/06/16 02:20:58;;;;;;;7.90;5.63;;;19.40;67.40;;;;;;5068555;28;20481;-76
2022/06/16 02:23:27;;;;;;;7.80;5.80;;;19.40;67.40;;;;;;5068944;28;20480;-75
2022/06/16 02:25:57;;;;;;;9.70;5.40;;;19.40;67.40;;;;;;5086574;28;20890;-75
2022/06/16 02:28:27;;;;;;;8.40;5.87;;;19.30;67.40;;;;;;5066048;28;20540;-76
2022/06/16 02:31:24;;;;;;;9.10;6.00;;;19.30;67.40;;;;;;5084964;28;20510;-76
2022/06/16 02:34:00;;;;;;;7.50;5.63;;;19.30;67.50;;;;;;5084737;28;20471;-76
2022/06/16 02:36:39;;;;;;;10.13;5.67;;;19.30;67.40;;;;;;5068399;28;20451;-75
2022/06/16 02:39:18;;;;;;;8.80;6.17;;;19.20;67.40;;;;;;5087700;28;20489;-75
2022/06/16 02:42:00;;;;;;;9.00;5.23;;;19.20;67.40;;;;;;5091505;28;20476;-75
2022/06/16 02:44:37;;;;;;;8.50;5.30;;;19.20;67.40;;;;;;5086799;28;20455;-76
2022/06/16 02:47:17;;;;;;;8.67;5.37;;;19.20;67.40;;;;;;5086377;28;20563;-75
2022/06/16 02:49:54;;;;;;;8.37;5.83;;;19.10;67.40;;;;;;5087492;28;21002;-75
2022/06/16 02:52:29;;;;;;;8.53;5.70;;;19.10;67.40;;;;;;5069396;28;20510;-75
2022/06/16 02:55:06;;;;;;;9.77;5.70;;;19.10;67.40;;;;;;5067070;28;20494;-76
2022/06/16 02:57:41;;;;;;;7.47;5.40;;;19.00;67.40;;;;;;5087510;28;20517;-75
2022/06/16 03:00:13;;;;;;;7.93;5.33;;;19.00;67.50;;;;;;5081214;28;20457;-74
2022/06/16 03:02:43;;;;;;;8.20;6.00;;;19.00;67.60;;;;;;5086009;28;20454;-76
2022/06/16 03:05:13;;;;;;;10.70;6.40;;;18.90;67.70;;;;;;5068793;28;20449;-76
2022/06/16 03:07:44;;;;;;;8.40;5.73;;;18.90;67.70;;;;;;5082468;28;20463;-76
2022/06/16 03:10:50;;;;;;;8.50;6.07;;;18.90;67.70;;;;;;5085368;28;20486;-75
2022/06/16 03:13:09;;;;;;;10.83;5.90;;;18.90;67.70;;;;;;5064933;28;20463;-76
2022/06/16 03:15:37;;;;;;;9.53;5.50;;;18.90;67.70;;;;;;5070001;28;20563;-76
2022/06/16 03:18:06;;;;;;;8.60;5.43;;;18.90;67.70;;;;;;5072844;28;20998;-74
2022/06/16 03:20:34;;;;;;;8.10;5.60;;;18.90;67.80;;;;;;5071471;28;20550;-77
2022/06/16 03:23:03;;;;;;;10.33;5.10;;;18.90;67.80;;;;;;5090448;28;20458;-74
2022/06/16 03:25:31;;;;;;;8.00;5.83;;;18.90;67.80;;;;;;5073815;28;20549;-75
2022/06/16 03:27:59;;;;;;;9.00;5.63;;;18.80;67.70;;;;;;5065892;28;20546;-74
2022/06/16 03:30:33;;;;;;;7.77;5.20;;;18.80;67.70;;;;;;5071467;28;22259;-74
2022/06/16 03:33:08;;;;;;;9.60;5.27;;;18.80;67.80;;;;;;5070598;28;20459;-74
2022/06/16 03:35:36;;;;;;;10.20;6.10;;;18.80;67.90;;;;;;5091651;28;20538;-74
2022/06/16 03:38:05;;;;;;;8.17;5.57;;;18.80;67.90;;;;;;5068154;28;20465;-74
2022/06/16 03:40:38;;;;;;;7.97;5.30;;;18.80;67.90;;;;;;5072720;28;20899;-76
2022/06/16 03:43:11;;;;;;;8.17;5.67;;;18.80;67.90;;;;;;5085222;28;20450;-73
2022/06/16 03:45:40;;;;;;;9.43;6.10;;;18.70;67.90;;;;;;5071691;28;20465;-75
2022/06/16 03:48:11;;;;;;;8.53;5.83;;;18.70;67.90;;;;;;5069891;28;20457;-74
2022/06/16 03:50:42;;;;;;;8.37;5.50;;;18.70;68.00;;;;;;5070511;28;20515;-75
2022/06/16 03:53:13;;;;;;;9.23;5.67;;;18.70;68.00;;;;;;5072089;28;20447;-75
2022/06/16 03:55:46;;;;;;;7.47;5.63;;;18.70;68.00;;;;;;5072875;28;21131;-74
2022/06/16 03:58:16;;;;;;;7.97;5.53;;;18.70;68.00;;;;;;5075642;28;20473;-76
2022/06/16 04:00:44;;;;;;;13.03;6.00;;;18.70;68.10;;;;;;5072302;28;20511;-74
2022/06/16 04:06:00;;;;;;;9.33;6.60;;;18.80;68.20;;;;;;5073198;28;20484;-75
2022/06/16 04:08:29;;;;;;;7.43;5.13;;;18.80;68.20;;;;;;5086628;28;20466;-74
2022/06/16 04:10:57;;;;;;;8.37;5.47;;;18.80;68.10;;;;;;5072333;28;20488;-75
2022/06/16 04:13:28;;;;;;;8.40;5.67;;;18.80;68.10;;;;;;5089860;28;20501;-73
2022/06/16 04:16:00;;;;;;;13.80;6.27;;;18.80;68.20;;;;;;5088915;28;21101;-75
2022/06/16 04:18:29;;;;;;;8.27;6.27;;;18.80;68.30;;;;;;5072735;28;20552;-73
2022/06/16 04:20:59;;;;;;;11.00;6.37;;;18.80;68.50;;;;;;5075477;28;20497;-74
2022/06/16 04:23:54;;;;;;;10.30;6.63;;;18.90;68.60;;;;;;5076487;28;21013;-74
2022/06/16 04:26:27;;;;;;;9.00;6.60;;;18.90;68.70;;;;;;5072001;28;20561;-75
2022/06/16 04:28:56;;;;;;;10.07;6.20;;;19.00;68.80;;;;;;5090328;28;20816;-72
2022/06/16 04:31:26;;;;;;;11.73;6.43;;;19.10;68.90;;;;;;5069988;28;21519;-75
2022/06/16 04:33:57;;;;;;;8.77;6.13;;;19.20;69.00;;;;;;5074219;28;20489;-75
2022/06/16 04:36:27;;;;;;;9.87;6.53;;;19.30;69.00;;;;;;5072572;28;20455;-74
2022/06/16 04:39:04;;;;;;;8.17;6.37;;;19.40;69.10;;;;;;5078227;28;20466;-75
2022/06/16 04:41:35;;;;;;;8.20;6.43;;;19.50;69.10;;;;;;5069705;28;21070;-76
2022/06/16 04:44:12;;;;;;;9.37;6.20;;;19.70;69.10;;;;;;5074313;28;20464;-74
2022/06/16 04:46:41;;;;;;;9.83;6.73;;;19.90;69.10;;;;;;5087828;28;20516;-75
2022/06/16 04:49:12;;;;;;;7.53;5.80;;;20.00;69.10;;;;;;5088986;28;20485;-73
2022/06/16 04:51:46;;;;;;;8.30;5.67;;;20.20;69.00;;;;;;5088276;28;20491;-73
2022/06/16 04:54:16;;;;;;;11.13;6.80;;;20.30;68.90;;;;;;5089899;28;20470;-73
2022/06/16 04:57:24;;;;;;;10.13;6.60;;;20.50;68.80;;;;;;5047566;28;20950;-75
2022/06/16 05:00:11;;;;;;;9.33;7.10;;;20.70;68.70;;;;;;5041965;28;20462;-74
2022/06/16 05:03:11;;;;;;;8.90;6.70;;;20.90;68.60;;;;;;5065125;28;20464;-74
2022/06/16 05:05:58;;;;;;;8.90;6.93;;;21.00;68.40;;;;;;5073059;28;20926;-71
2022/06/16 05:08:38;;;;;;;13.57;7.90;;;21.20;68.30;;;;;;5071767;28;20477;-72
2022/06/16 05:11:25;;;;;;;11.00;8.10;;;21.30;68.30;;;;;;5089297;28;20480;-74
2022/06/16 05:14:05;;;;;;;10.00;7.23;;;21.40;68.20;;;;;;5085562;28;20450;-74
2022/06/16 05:16:53;;;;;;;14.93;7.73;;;21.60;68.10;;;;;;5085030;28;20546;-73
2022/06/16 05:19:44;;;;;;;12.50;8.00;;;21.80;67.90;;;;;;5083376;28;21290;-73
2022/06/16 05:22:46;;;;;;;9.27;7.20;;;21.90;67.80;;;;;;5065069;28;20476;-73
2022/06/16 05:25:28;;;;;;;11.83;7.07;;;22.10;67.60;;;;;;5079829;28;20457;-73
2022/06/16 05:28:03;;;;;;;15.33;6.80;;;22.30;67.60;;;;;;5088527;28;20518;-75
2022/06/16 05:30:41;;;;;;;9.70;7.10;;;22.40;67.50;;;;;;5087575;28;20480;-75
2022/06/16 05:33:28;;;;;;;9.10;5.83;;;22.60;67.30;;;;;;5073342;28;20852;-72
2022/06/16 05:36:14;;;;;;;11.00;6.40;;;22.70;66.80;;;;;;5065378;28;20975;-74
2022/06/16 05:39:09;;;;;;;10.13;5.93;;;22.70;66.30;;;;;;5065537;28;20460;-74
2022/06/16 05:41:50;;;;;;;8.80;6.40;;;22.70;66.00;;;;;;5088087;28;20476;-74
2022/06/16 05:44:26;;;;;;;11.40;6.27;;;22.70;66.40;;;;;;5089249;28;20514;-73
2022/06/16 05:47:01;;;;;;;11.17;6.17;;;23.30;65.90;;;;;;5086690;28;20497;-74
2022/06/16 05:49:40;;;;;;;12.20;6.90;;;23.40;64.80;;;;;;5089398;28;20459;-76
2022/06/16 05:52:15;;;;;;;11.60;6.27;;;23.70;65.60;;;;;;5087988;28;20985;-74
2022/06/16 05:54:57;;;;;;;10.33;7.17;;;24.60;64.80;;;;;;5069990;28;20467;-74
2022/06/16 05:57:27;;;;;;;10.33;5.67;;;25.50;63.20;;;;;;5071550;28;20450;-75
2022/06/16 05:59:56;;;;;;;11.13;6.77;;;25.80;61.60;;;;;;5090891;28;20450;-75
2022/06/16 06:02:24;;;;;;;8.07;5.77;;;25.90;61.30;;;;;;5067150;28;20558;-76
2022/06/16 06:04:58;;;;;;;7.93;5.60;;;25.90;60.60;;;;;;5070821;28;20525;-76
2022/06/16 06:16:25;;;;;;;8.43;5.87;;;25.80;60.80;;;;;;5071748;28;20456;-76
2022/06/16 06:18:38;;;;;;;10.00;6.27;;;24.90;60.50;;;;;;5085726;28;20457;-74
2022/06/16 06:21:07;;;;;;;8.37;5.80;;;24.40;61.20;;;;;;5088931;28;20467;-75
2022/06/16 06:23:35;;;;;;;11.80;6.53;;;24.20;62.20;;;;;;5068524;28;20545;-74
2022/06/16 06:26:04;;;;;;;8.53;6.33;;;24.20;62.90;;;;;;5094252;28;20965;-75
2022/06/16 06:28:32;;;;;;;8.40;6.07;;;24.30;63.00;;;;;;5069647;28;20454;-75
2022/06/16 06:31:00;;;;;;;8.80;5.83;;;24.30;62.80;;;;;;5086640;28;20470;-75
2022/06/16 06:33:30;;;;;;;8.27;6.10;;;24.40;62.60;;;;;;5086670;28;20470;-73
2022/06/16 06:35:59;;;;;;;11.20;5.63;;;24.30;62.50;;;;;;5070192;28;20540;-75
2022/06/16 06:38:27;;;;;;;7.83;6.33;;;24.20;62.40;;;;;;5087179;28;20557;-73
2022/06/16 06:40:55;;;;;;;9.77;5.80;;;24.10;62.50;;;;;;5085866;28;21256;-75
2022/06/16 06:43:24;;;;;;;10.07;5.70;;;23.90;62.70;;;;;;5087033;28;20814;-75
2022/06/16 06:45:52;;;;;;;7.10;5.40;;;23.80;62.90;;;;;;5086507;28;20469;-73
2022/06/16 06:48:20;;;;;;;8.93;5.80;;;23.70;63.10;;;;;;5090975;28;20542;-75
2022/06/16 06:50:48;;;;;;;14.30;5.90;;;23.60;63.10;;;;;;5092347;28;20458;-73
2022/06/16 06:53:16;;;;;;;7.70;5.27;;;23.60;63.20;;;;;;5092369;28;20482;-75
2022/06/16 06:55:47;;;;;;;10.93;6.13;;;23.50;63.30;;;;;;5090401;28;20467;-74
2022/06/16 06:58:19;;;;;;;9.57;5.77;;;23.50;63.40;;;;;;5088043;28;20445;-73
2022/06/16 07:00:51;;;;;;;8.83;5.20;;;23.50;63.50;;;;;;5090446;28;20477;-75
2022/06/16 07:03:19;;;;;;;10.03;6.07;;;23.60;63.60;;;;;;5074457;28;20460;-75
2022/06/16 07:05:48;;;;;;;7.77;5.30;;;23.60;63.60;;;;;;5092208;28;20449;-75
2022/06/16 07:08:16;;;;;;;7.57;5.70;;;23.70;63.60;;;;;;5086721;28;20469;-74
2022/06/16 07:10:44;;;;;;;8.47;5.73;;;23.70;63.40;;;;;;5091182;28;20484;-75
2022/06/16 07:13:14;;;;;;;7.93;5.53;;;23.70;63.30;;;;;;5091641;28;20547;-74
2022/06/16 07:15:42;;;;;;;9.10;5.73;;;23.70;63.40;;;;;;5091051;28;21049;-75
2022/06/16 07:18:11;;;;;;;7.93;5.80;;;23.70;63.30;;;;;;5089319;28;20490;-74
2022/06/16 07:20:40;;;;;;;6.93;5.53;;;23.70;63.30;;;;;;5091391;28;20481;-74
2022/06/16 07:23:08;;;;;;;8.17;6.00;;;23.70;63.30;;;;;;5091430;28;20448;-73
2022/06/16 07:25:36;;;;;;;9.83;5.63;;;23.70;63.20;;;;;;5091448;28;20453;-74
2022/06/16 07:28:04;;;;;;;9.33;6.13;;;23.70;63.20;;;;;;5090845;28;20961;-76
2022/06/16 07:30:33;;;;;;;8.43;5.60;;;23.80;63.30;;;;;;5091540;28;20478;-75
2022/06/16 07:33:01;;;;;;;9.07;5.53;;;23.80;63.30;;;;;;5066132;28;21009;-75
2022/06/16 07:35:30;;;;;;;7.13;5.00;;;23.80;63.40;;;;;;5091514;28;20863;-74
2022/06/16 07:37:58;;;;;;;8.90;5.57;;;23.80;63.50;;;;;;5092124;28;20451;-74
2022/06/16 07:40:27;;;;;;;8.23;5.87;;;23.80;63.60;;;;;;5092051;28;20502;-73
2022/06/16 07:42:56;;;;;;;8.77;6.10;;;23.80;63.60;;;;;;5090442;28;20454;-74
2022/06/16 07:45:25;;;;;;;12.53;7.40;;;23.80;63.60;;;;;;5069530;28;20454;-74
2022/06/16 07:48:00;;;;;;;9.17;5.83;;;23.90;63.70;;;;;;5072758;28;20450;-74
2022/06/16 07:50:31;;;;;;;9.63;5.83;;;23.80;63.70;;;;;;5091829;28;20450;-74
2022/06/16 07:52:59;;;;;;;10.30;6.07;;;23.80;63.70;;;;;;5089946;28;20455;-74
2022/06/16 07:55:27;;;;;;;8.20;6.20;;;23.80;63.90;;;;;;5091687;28;20448;-73
2022/06/16 07:57:55;;;;;;;8.90;5.90;;;23.90;63.90;;;;;;5091456;28;20509;-75
2022/06/16 08:00:26;;;;;;;10.67;6.13;;;23.90;63.90;;;;;;5090058;28;20453;-74
2022/06/16 08:02:55;;;;;;;7.90;5.80;;;23.90;63.90;;;;;;5087472;28;20459;-74
2022/06/16 08:05:24;;;;;;;10.93;5.07;;;24.00;63.70;;;;;;5090851;28;20450;-75
2022/06/16 08:07:53;;;;;;;9.37;5.73;;;24.00;63.50;;;;;;5091082;28;20456;-75
2022/06/16 08:10:23;;;;;;;8.00;5.50;;;24.00;63.40;;;;;;5073032;28;20512;-74
2022/06/16 08:12:51;;;;;;;11.00;5.47;;;24.10;63.30;;;;;;5066665;28;20445;-74
2022/06/16 08:15:19;;;;;;;9.73;5.30;;;24.10;63.20;;;;;;5085997;28;20599;-74
2022/06/16 08:17:51;;;;;;;10.57;5.07;;;24.20;62.90;;;;;;5091123;28;20491;-74
2022/06/16 08:20:20;;;;;;;9.40;5.60;;;24.20;62.60;;;;;;5086613;28;20458;-75
2022/06/16 08:22:48;;;;;;;7.57;5.10;;;24.20;62.60;;;;;;5089957;28;20450;-75
2022/06/16 08:25:18;;;;;;;11.30;6.03;;;24.20;62.50;;;;;;5085688;28;20436;-74
2022/06/16 08:27:50;;;;;;;7.40;5.70;;;24.20;62.40;;;;;;5088691;28;20842;-74
2022/06/16 08:30:19;;;;;;;8.63;5.60;;;24.20;62.40;;;;;;5087832;28;20457;-73
2022/06/16 08:32:51;;;;;;;8.03;5.30;;;24.20;62.30;;;;;;5089279;28;20447;-75
2022/06/16 08:39:35;;;;;;;8.17;5.30;;;24.20;62.30;;;;;;5075114;28;20823;-74
2022/06/16 08:42:34;;;;;;;10.30;5.53;;;24.20;62.50;;;;;;5086743;28;20472;-74
2022/06/16 08:45:13;;;;;;;7.70;5.13;;;24.20;62.50;;;;;;5090242;28;20462;-73
2022/06/16 08:47:46;;;;;;;10.60;5.43;;;24.20;62.40;;;;;;5088661;28;20473;-75
2022/06/16 08:50:28;;;;;;;8.83;5.60;;;24.20;62.50;;;;;;5090266;28;20455;-74
2022/06/16 08:53:10;;;;;;;9.50;5.50;;;24.30;62.50;;;;;;5088879;28;20504;-73
2022/06/16 08:55:48;;;;;;;8.80;5.07;;;24.20;62.30;;;;;;5089406;28;20489;-73
2022/06/16 08:58:28;;;;;;;7.00;4.70;;;24.20;62.30;;;;;;5089368;28;20455;-72
2022/06/16 09:01:02;;;;;;;7.90;5.03;;;24.40;62.30;;;;;;5087379;28;20478;-72
2022/06/16 09:03:39;;;;;;;8.53;4.70;;;24.50;62.40;;;;;;5089883;28;20473;-74
2022/06/16 09:06:22;;;;;;;7.17;5.33;;;24.70;62.10;;;;;;5088204;28;20901;-73
2022/06/16 09:09:04;;;;;;;12.70;4.57;;;24.90;62.00;;;;;;5091381;28;20457;-73
2022/06/16 09:11:40;;;;;;;10.40;4.60;;;25.10;61.70;;;;;;5088780;28;20477;-74
2022/06/16 09:17:27;;;;;;;7.57;3.93;;;25.30;60.10;;;;;;5087541;28;20500;-74
2022/06/16 09:20:03;;;;;;;5.77;3.40;;;25.40;59.90;;;;;;5089438;28;20977;-75
2022/06/16 09:22:53;;;;;;;5.40;3.63;;;25.40;59.80;;;;;;5086046;28;20495;-75
2022/06/16 09:25:45;;;;;;;6.83;4.30;;;25.50;59.60;;;;;;5085397;28;20454;-74
2022/06/16 09:28:18;;;;;;;11.10;4.47;;;25.50;59.30;;;;;;5086131;28;20824;-74
2022/06/16 09:30:51;;;;;;;5.87;3.57;;;25.60;59.00;;;;;;5088046;28;20472;-74
2022/06/16 09:33:24;;;;;;;8.37;4.13;;;25.60;59.00;;;;;;5089030;28;20454;-75
2022/06/16 09:35:58;;;;;;;6.23;4.00;;;25.60;59.00;;;;;;5087781;28;21156;-75
2022/06/16 09:38:30;;;;;;;6.80;4.30;;;25.70;59.00;;;;;;5089460;28;20825;-74
2022/06/16 09:41:05;;;;;;;7.23;4.07;;;25.70;58.40;;;;;;5087249;28;20886;-73
2022/06/16 09:43:39;;;;;;;7.17;4.00;;;25.70;58.40;;;;;;5086799;28;20871;-71
2022/06/16 09:46:21;;;;;;;9.57;4.10;;;25.80;58.50;;;;;;5087319;28;20560;-74
2022/06/16 09:48:55;;;;;;;5.70;3.67;;;25.80;58.30;;;;;;5088736;28;20476;-74
2022/06/16 09:51:29;;;;;;;6.70;4.10;;;25.80;58.10;;;;;;5085678;28;20908;-73
2022/06/16 09:54:02;;;;;;;8.40;4.30;;;25.80;58.10;;;;;;5086388;28;20454;-72
2022/06/16 09:56:33;;;;;;;6.63;4.30;;;25.80;57.80;;;;;;5085383;28;20460;-75
2022/06/16 09:59:06;;;;;;;10.60;4.00;;;25.80;58.00;;;;;;5084944;28;21267;-75
2022/06/16 10:01:42;;;;;;;5.60;3.50;;;25.90;57.70;;;;;;5077555;28;20465;-75
2022/06/16 10:04:10;;;;;;;6.20;3.30;;;26.00;57.70;;;;;;5068322;28;20654;-73
2022/06/16 10:06:48;;;;;;;9.33;4.00;;;26.00;57.60;;;;;;5084986;28;20511;-75
2022/06/16 10:09:28;;;;;;;6.40;3.60;;;26.00;57.60;;;;;;5087072;28;20484;-73
2022/06/16 10:12:06;;;;;;;10.20;5.87;;;26.10;57.40;;;;;;5082373;28;20970;-73
2022/06/16 10:14:40;;;;;;;12.43;7.90;;;26.10;57.30;;;;;;5086456;28;20833;-74
2022/06/16 10:17:13;;;;;;;7.80;4.50;;;26.10;57.30;;;;;;5085014;28;20893;-74
2022/06/16 10:19:44;;;;;;;6.77;4.00;;;26.20;57.20;;;;;;5084234;28;20467;-73
2022/06/16 10:22:14;;;;;;;6.47;3.53;;;26.20;57.10;;;;;;5085055;28;20480;-73
2022/06/16 10:24:48;;;;;;;5.00;2.93;;;26.30;56.50;;;;;;5085964;28;20564;-73
2022/06/16 10:27:18;;;;;;;5.93;3.90;;;26.30;56.70;;;;;;5068195;28;20534;-73
2022/06/16 10:29:55;;;;;;;7.60;3.90;;;26.40;56.50;;;;;;5082857;28;20464;-73
2022/06/16 10:32:39;;;;;;;6.43;3.73;;;26.40;56.20;;;;;;5084762;28;20500;-73
2022/06/16 10:35:14;;;;;;;7.53;3.97;;;26.40;56.10;;;;;;5082856;28;20471;-74
2022/06/16 10:37:45;;;;;;;7.77;4.00;;;26.40;56.10;;;;;;5083956;28;20466;-75
2022/06/16 10:40:16;;;;;;;6.87;4.00;;;26.40;55.70;;;;;;5085935;28;20462;-74
2022/06/16 10:42:47;;;;;;;6.10;4.07;;;26.40;55.50;;;;;;5084541;28;20499;-74
2022/06/16 10:45:21;;;;;;;6.33;4.03;;;26.50;55.60;;;;;;5085230;28;20462;-74
2022/06/16 10:47:54;;;;;;;5.80;3.53;;;26.50;55.70;;;;;;5084623;28;20466;-74
2022/06/16 10:50:25;;;;;;;7.03;4.10;;;26.50;55.60;;;;;;5081828;28;20462;-73
2022/06/16 10:52:58;;;;;;;6.60;3.73;;;26.50;55.60;;;;;;5085108;28;20543;-74
2022/06/16 10:55:29;;;;;;;5.90;3.37;;;26.50;55.60;;;;;;5082966;28;20483;-72
2022/06/16 10:58:05;;;;;;;7.30;4.47;;;26.60;55.80;;;;;;5080066;28;20520;-73
2022/06/16 11:00:36;;;;;;;12.00;6.87;;;26.60;55.60;;;;;;5081783;28;20812;-76
2022/06/16 11:03:17;;;;;;;5.90;3.90;;;26.70;55.40;;;;;;5084100;28;20560;-73
2022/06/16 11:05:54;;;;;;;12.13;4.97;;;26.70;55.10;;;;;;5085403;28;20454;-73
2022/06/16 11:08:26;;;;;;;8.00;3.87;;;26.70;55.20;;;;;;5081126;28;20459;-73
2022/06/16 11:11:19;;;;;;;7.33;3.97;;;26.70;55.20;;;;;;5084452;28;20495;-72
2022/06/16 11:13:50;;;;;;;7.10;3.60;;;26.80;55.40;;;;;;5078701;28;20470;-74
2022/06/16 11:16:27;;;;;;;10.00;4.17;;;26.80;55.40;;;;;;5083296;28;20522;-73
2022/06/16 11:18:59;;;;;;;6.80;4.03;;;26.90;55.10;;;;;;5084223;28;20539;-74
2022/06/16 11:21:30;;;;;;;6.43;3.90;;;26.90;55.00;;;;;;5084267;28;20838;-73
2022/06/16 11:24:01;;;;;;;7.60;3.90;;;26.80;55.20;;;;;;5086468;28;20470;-75
2022/06/16 11:26:32;;;;;;;8.63;3.63;;;26.90;55.30;;;;;;5081903;28;20525;-74
2022/06/16 11:29:02;;;;;;;6.30;3.90;;;26.90;55.10;;;;;;5084498;28;20462;-74
2022/06/16 11:31:38;;;;;;;6.80;4.07;;;26.80;55.00;;;;;;5082463;28;20519;-74
2022/06/16 11:34:15;;;;;;;10.83;5.43;;;26.90;54.80;;;;;;5085040;28;20472;-74
2022/06/16 11:37:17;;;;;;;8.70;4.90;;;26.90;54.80;;;;;;5089050;28;20491;-72
2022/06/16 11:39:56;;;;;;;6.30;3.57;;;26.80;54.60;;;;;;5086966;28;20524;-74
2022/06/16 11:42:44;;;;;;;15.30;4.33;;;26.80;54.40;;;;;;5089318;28;20475;-75
2022/06/16 11:45:24;;;;;;;7.50;3.60;;;26.80;54.80;;;;;;5086135;28;20481;-73
2022/06/16 11:48:00;;;;;;;7.17;3.90;;;26.80;54.60;;;;;;5092155;28;20475;-75
2022/06/16 11:50:36;;;;;;;6.40;3.87;;;26.80;54.50;;;;;;5086175;28;20515;-74
2022/06/16 11:53:17;;;;;;;7.57;4.63;;;26.80;54.50;;;;;;5091288;28;20483;-75
2022/06/16 11:55:51;;;;;;;13.47;6.37;;;26.80;54.40;;;;;;5090574;28;20474;-74
2022/06/16 11:58:38;;;;;;;11.70;5.27;;;26.90;54.60;;;;;;5072043;28;20448;-73
2022/06/16 12:01:11;;;;;;;11.57;5.90;;;26.90;54.80;;;;;;5087036;28;20549;-72
2022/06/16 12:04:07;;;;;;;11.10;4.67;;;26.90;54.80;;;;;;5090217;28;20469;-74
2022/06/16 12:07:02;;;;;;;6.90;4.03;;;27.00;54.70;;;;;;5095041;28;20542;-72
2022/06/16 12:09:39;;;;;;;9.20;3.93;;;27.00;54.30;;;;;;5091495;28;20896;-72
2022/06/16 12:12:14;;;;;;;7.87;4.50;;;26.90;54.80;;;;;;5090211;28;20861;-74
2022/06/16 12:14:54;;;;;;;6.00;3.83;;;26.90;55.00;;;;;;5088910;28;20443;-75
2022/06/16 12:17:28;;;;;;;9.30;4.03;;;27.00;55.00;;;;;;5086108;28;20473;-75
2022/06/16 12:20:02;;;;;;;9.57;3.57;;;27.00;55.00;;;;;;5087052;28;20898;-73
2022/06/16 12:22:55;;;;;;;5.93;4.10;;;27.10;54.70;;;;;;5086484;28;20464;-74
2022/06/16 12:25:30;;;;;;;6.87;4.20;;;27.10;54.60;;;;;;5083204;28;21019;-74
2022/06/16 12:28:05;;;;;;;7.47;3.40;;;27.10;54.80;;;;;;5082263;28;20463;-74
2022/06/16 12:30:37;;;;;;;9.80;3.63;;;27.20;54.50;;;;;;5081971;28;20472;-75
2022/06/16 12:33:12;;;;;;;7.50;4.57;;;27.20;54.40;;;;;;5082653;28;20482;-73
2022/06/16 12:35:47;;;;;;;6.43;3.67;;;27.20;54.40;;;;;;5087697;28;20475;-75
2022/06/16 12:38:21;;;;;;;9.10;3.43;;;27.20;54.20;;;;;;5089380;28;20462;-72
2022/06/16 12:40:52;;;;;;;10.27;3.77;;;27.20;54.20;;;;;;5090430;28;20543;-73
2022/06/16 12:43:27;;;;;;;5.80;3.40;;;27.30;54.10;;;;;;5086209;28;20467;-74
2022/06/16 12:46:02;;;;;;;6.17;3.63;;;27.30;54.20;;;;;;5086827;28;20525;-74
2022/06/16 12:49:09;;;;;;;9.67;3.63;;;27.30;54.00;;;;;;5088230;28;20447;-75
2022/06/16 12:51:44;;;;;;;9.00;3.33;;;27.30;53.90;;;;;;5088424;28;20498;-73
2022/06/16 12:54:17;;;;;;;7.50;3.40;;;27.30;53.60;;;;;;5086112;28;20459;-73
2022/06/16 12:56:50;;;;;;;6.70;3.40;;;27.30;53.40;;;;;;5090160;28;20476;-74
2022/06/16 13:07:42;;;;;;;9.93;3.10;;;27.20;53.20;;;;;;5088846;28;20480;-73
2022/06/16 13:19:18;;;;;;;8.87;3.30;;;27.20;51.90;;;;;;5089138;28;20555;-73
2022/06/16 13:21:53;;;;;;;7.37;2.90;;;27.20;50.40;;;;;;5090328;28;20495;-73
2022/06/16 13:24:35;;;;;;;5.73;2.60;;;27.20;51.80;;;;;;5091877;28;20509;-75
2022/06/16 13:27:12;;;;;;;6.60;2.90;;;27.20;51.80;;;;;;5089306;28;20815;-73
2022/06/16 13:29:57;;;;;;;5.17;2.70;;;27.20;51.30;;;;;;5090186;28;20464;-74
2022/06/16 13:32:40;;;;;;;7.30;2.80;;;27.30;50.80;;;;;;5084777;28;20472;-74
2022/06/16 13:35:31;;;;;;;8.67;2.93;;;27.30;50.60;;;;;;5085818;28;21170;-74
2022/06/16 13:38:26;;;;;;;8.03;2.70;;;27.40;50.70;;;;;;5081538;28;20481;-73
2022/06/16 13:41:39;;;;;;;8.20;2.70;;;27.40;50.40;;;;;;5086941;28;21052;-75
2022/06/16 13:44:14;;;;;;;10.10;3.00;;;27.30;50.60;;;;;;5085201;28;20459;-73
2022/06/16 13:47:14;;;;;;;5.30;2.80;;;27.30;50.40;;;;;;5085717;28;20476;-73
2022/06/16 13:50:12;;;;;;;4.90;2.40;;;27.30;50.10;;;;;;5087702;28;20479;-74
2022/06/16 13:52:46;;;;;;;5.53;2.33;;;27.30;49.20;;;;;;5061751;28;21029;-76
2022/06/16 13:55:29;;;;;;;5.00;2.10;;;27.40;49.00;;;;;;5090519;28;20551;-74
2022/06/16 13:58:15;;;;;;;6.43;2.40;;;27.40;48.80;;;;;;5087723;28;20992;-72
2022/06/16 14:00:46;;;;;;;6.83;1.93;;;27.40;48.30;;;;;;5087206;28;20474;-73
2022/06/16 14:03:26;;;;;;;5.73;2.77;;;27.40;48.20;;;;;;5085942;28;20454;-73
2022/06/16 14:06:02;;;;;;;5.37;2.50;;;27.50;48.10;;;;;;5089696;28;20473;-73
2022/06/16 14:08:33;;;;;;;5.80;2.00;;;27.50;47.70;;;;;;5089952;28;20462;-73